Max, North Dakota
Current Conditions -  °F | °C
As of 10:54 PM on Saturday 22 Nov 2014 (Local Time) from KMOT Reporting Station
Clear Clear  
Wind Chill: 30°   Ceiling: Unl
Heat Index: 37°   Visibility: 10mi
Dew Point: 29°   Wind: 10mph
Humidity: 73%   Direction: 210°SSW
Pressure: 29.28"   Gusts: NA
Location:  47.82°N, 101.3°W
Report Text: KMOT 230454Z AUTO 21009KT 10SM CLR 03/M02 A2928 RMK AO2 SLP929 T00281017
Loading
Personal Weather Stations






























Interactive Weather Map New forecast layout! Learn more

10-Day Weather Forecast

Advertisements
Track Severe Weather on mobile